Time;durP1;ratioP1;P1;durP2;ratioP2;P2;SDS_P1;SDS_P2;PMS_P1;PMS_P2;Temp;Humidity;BMP_temperature;BMP_pressure;BME280_temperature;BME280_humidity;BME280_pressure;Samples;Min_cycle;Max_cycle;Signal;HPM_P1;HPM_P2
2023/02/24 00:00:32;;;;;;;17.50;10.00;;;;;;;9.69;89.74;94889.38;4998498;28;20453;-74
2023/02/24 00:03:04;;;;;;;23.87;11.37;;;;;;;9.47;89.66;94881.59;5032888;28;20445;-74
2023/02/24 00:05:35;;;;;;;18.93;11.73;;;;;;;9.58;88.95;94892.03;5032794;28;20541;-71
2023/02/24 00:08:02;;;;;;;13.40;9.80;;;;;;;9.18;91.22;94876.88;5032540;28;20449;-73
2023/02/24 00:10:30;;;;;;;20.83;11.63;;;;;;;9.25;91.20;94874.59;5032612;28;20496;-73
2023/02/24 00:12:56;;;;;;;16.40;10.40;;;;;;;9.24;92.05;94868.53;5032409;28;20449;-73
2023/02/24 00:15:23;;;;;;;21.63;12.07;;;;;;;9.31;91.46;94874.16;5032777;28;20450;-72
2023/02/24 00:17:50;;;;;;;17.80;9.53;;;;;;;9.32;91.02;94879.25;5033084;28;20449;-73
2023/02/24 00:20:17;;;;;;;15.73;11.50;;;;;;;9.35;90.85;94877.34;5032651;28;20556;-73
2023/02/24 00:22:46;;;;;;;16.57;11.50;;;;;;;9.43;90.45;94869.69;5032384;28;20449;-73
2023/02/24 00:25:13;;;;;;;17.43;10.77;;;;;;;9.56;89.54;94867.78;4997674;28;20508;-73
2023/02/24 00:27:41;;;;;;;16.30;8.97;;;;;;;9.45;89.74;94873.84;5032564;28;20862;-74
2023/02/24 00:30:10;;;;;;;11.20;8.30;;;;;;;8.97;91.74;94868.97;5032748;28;20489;-73
2023/02/24 00:32:37;;;;;;;10.43;7.70;;;;;;;9.17;91.44;94867.38;5032416;28;20461;-73
2023/02/24 00:35:04;;;;;;;19.13;10.20;;;;;;;9.34;90.30;94873.06;5032232;28;20505;-74
2023/02/24 00:37:31;;;;;;;17.17;9.93;;;;;;;9.41;90.04;94869.81;4997725;28;20462;-73
2023/02/24 00:39:59;;;;;;;14.00;8.60;;;;;;;9.41;89.95;94864.59;5032341;28;20511;-74
2023/02/24 00:42:26;;;;;;;15.53;9.80;;;;;;;9.29;90.15;94869.03;5032516;28;20503;-74
2023/02/24 00:44:54;;;;;;;15.10;10.40;;;;;;;9.35;89.67;94853.78;5030010;28;20531;-73
2023/02/24 00:47:22;;;;;;;17.80;9.67;;;;;;;9.23;89.58;94866.88;5032265;28;20921;-74
2023/02/24 00:49:49;;;;;;;12.47;9.10;;;;;;;9.28;90.03;94861.31;5032126;28;21097;-73
2023/02/24 00:52:18;;;;;;;14.00;8.83;;;;;;;9.25;90.08;94853.66;5032500;28;20502;-73
2023/02/24 00:54:46;;;;;;;13.40;9.50;;;;;;;9.06;91.18;94856.94;5032201;28;20509;-73
2023/02/24 00:57:16;;;;;;;10.60;7.63;;;;;;;8.99;91.15;94855.75;5032015;28;20877;-74
2023/02/24 00:59:46;;;;;;;10.00;8.13;;;;;;;9.13;91.00;94854.66;5032271;28;20457;-73
2023/02/24 01:02:13;;;;;;;12.83;8.90;;;;;;;9.15;90.39;94845.72;5031923;28;20535;-73
2023/02/24 01:04:43;;;;;;;12.87;7.27;;;;;;;9.16;89.17;94843.94;5032112;28;20444;-74
2023/02/24 01:07:11;;;;;;;14.47;8.20;;;;;;;9.08;90.80;94841.09;5032329;28;20782;-74
2023/02/24 01:09:40;;;;;;;13.30;7.80;;;;;;;9.21;89.74;94840.00;5031927;28;20503;-73
2023/02/24 01:15:07;;;;;;;9.50;6.30;;;;;;;8.49;93.20;94846.63;5009797;28;20451;-74
2023/02/24 01:17:36;;;;;;;9.43;6.47;;;;;;;8.53;93.17;94843.66;5010009;28;20447;-72
2023/02/24 01:20:15;;;;;;;9.90;7.17;;;;;;;8.39;94.37;94838.69;5009652;28;21023;-73
2023/02/24 01:22:42;;;;;;;13.03;7.13;;;;;;;8.35;94.34;94842.44;4980591;28;20451;-73
2023/02/24 01:25:09;;;;;;;10.00;7.03;;;;;;;8.46;93.98;94829.41;5010466;28;20456;-73
2023/02/24 01:27:37;;;;;;;8.30;6.43;;;;;;;8.14;95.24;94836.25;5013914;28;20514;-73
2023/02/24 01:30:07;;;;;;;10.13;6.90;;;;;;;8.15;95.67;94819.59;5013481;28;20581;-73
2023/02/24 01:32:35;;;;;;;11.37;7.47;;;;;;;8.28;95.72;94831.59;4965742;28;20501;-73
2023/02/24 01:35:01;;;;;;;9.30;7.40;;;;;;;8.41;94.61;94820.25;5013385;28;21030;-74
2023/02/24 01:37:28;;;;;;;12.50;7.40;;;;;;;8.34;93.72;94815.47;5013500;28;20944;-74
2023/02/24 01:39:55;;;;;;;12.13;7.50;;;;;;;8.55;93.90;94818.22;5013735;28;20445;-73
2023/02/24 01:42:22;;;;;;;10.13;8.30;;;;;;;8.66;93.43;94812.97;5013638;28;20527;-73
2023/02/24 01:45:12;;;;;;;10.43;7.77;;;;;;;8.74;91.53;94822.03;5013607;28;20484;-73
2023/02/24 01:47:39;;;;;;;15.40;7.67;;;;;;;8.60;91.68;94821.31;5013524;28;20476;-73
2023/02/24 01:50:09;;;;;;;17.77;11.87;;;;;;;8.21;94.68;94821.75;5031639;28;20484;-72
2023/02/24 01:52:37;;;;;;;9.60;6.57;;;;;;;8.14;94.57;94813.56;5035475;28;20447;-74
2023/02/24 01:55:12;;;;;;;8.60;7.27;;;;;;;7.81;96.68;94822.16;5035256;28;20451;-73
2023/02/24 01:57:40;;;;;;;8.10;7.00;;;;;;;7.75;97.14;94822.59;5001777;28;20454;-73
2023/02/24 02:00:19;;;;;;;15.03;8.60;;;;;;;7.63;98.24;94810.47;5033100;28;20946;-74
2023/02/24 02:02:51;;;;;;;7.97;6.27;;;;;;;7.50;98.87;94820.13;5003124;28;20439;-74
2023/02/24 02:05:18;;;;;;;9.50;6.07;;;;;;;7.46;99.53;94817.75;5035435;28;20435;-73
2023/02/24 02:07:46;;;;;;;12.33;7.00;;;;;;;7.55;99.72;94816.28;5035314;28;20447;-73
2023/02/24 02:10:17;;;;;;;18.27;7.33;;;;;;;7.45;99.95;94820.47;5034993;28;20483;-74
2023/02/24 02:12:44;;;;;;;12.07;7.43;;;;;;;7.58;99.25;94812.59;5034818;28;20463;-74
2023/02/24 02:15:15;;;;;;;8.20;6.00;;;;;;;7.73;98.62;94808.81;5034709;28;20512;-73
2023/02/24 02:17:53;;;;;;;9.57;7.13;;;;;;;7.80;97.74;94809.19;5035212;28;20451;-73
2023/02/24 02:20:43;;;;;;;12.83;7.70;;;;;;;7.77;97.60;94810.25;5034904;28;20533;-73
2023/02/24 02:23:56;;;;;;;12.57;8.13;;;;;;;7.85;97.56;94807.09;5034932;28;20792;-73
2023/02/24 02:26:52;;;;;;;10.20;7.33;;;;;;;7.85;95.96;94810.53;4993135;28;20449;-74
2023/02/24 02:29:48;;;;;;;9.90;6.50;;;;;;;7.92;96.14;94819.56;4915906;29;20453;-73
2023/02/24 02:32:50;;;;;;;12.37;7.10;;;;;;;8.06;95.60;94811.50;4859768;29;20474;-74
2023/02/24 02:35:22;;;;;;;7.77;5.37;;;;;;;7.90;95.04;94821.47;4815733;29;20487;-73
2023/02/24 02:37:55;;;;;;;9.87;6.40;;;;;;;7.79;95.59;94818.81;4858737;29;20558;-73
2023/02/24 02:40:28;;;;;;;7.27;5.07;;;;;;;7.62;95.81;94821.88;4860082;29;20547;-73
2023/02/24 02:42:59;;;;;;;8.63;6.37;;;;;;;7.63;96.50;94815.69;4859633;29;20463;-73
2023/02/24 02:45:35;;;;;;;9.07;6.27;;;;;;;7.36;97.87;94814.16;4859950;29;20445;-73
2023/02/24 02:48:07;;;;;;;9.87;6.40;;;;;;;7.47;97.30;94805.53;4859684;29;20487;-73
2023/02/24 02:50:44;;;;;;;7.67;5.37;;;;;;;7.59;97.30;94806.44;4859443;29;20907;-73
2023/02/24 02:53:16;;;;;;;10.17;6.33;;;;;;;7.82;95.40;94802.94;4859805;29;20455;-73
2023/02/24 02:55:47;;;;;;;8.60;6.07;;;;;;;7.78;95.27;94791.03;4859612;29;20546;-73
2023/02/24 02:58:22;;;;;;;10.37;6.50;;;;;;;7.74;94.72;94800.03;4859637;29;20448;-73
2023/02/24 03:01:00;;;;;;;8.57;6.40;;;;;;;8.00;94.00;94803.31;4870417;29;20448;-73
2023/02/24 03:03:30;;;;;;;10.73;6.50;;;;;;;8.14;93.53;94797.03;4878115;29;20530;-73
2023/02/24 03:06:03;;;;;;;7.67;6.47;;;;;;;8.19;93.18;94789.66;4894756;29;20453;-73
2023/02/24 03:08:36;;;;;;;13.20;7.40;;;;;;;8.35;92.00;94788.38;4972761;28;20533;-73
2023/02/24 03:11:07;;;;;;;9.23;5.87;;;;;;;8.39;90.38;94786.38;5033959;28;20999;-73
2023/02/24 03:13:39;;;;;;;10.40;6.53;;;;;;;8.47;90.40;94781.38;5033909;28;20500;-74
2023/02/24 03:16:10;;;;;;;11.20;6.43;;;;;;;8.58;89.46;94785.75;5033857;28;20443;-73
2023/02/24 03:18:40;;;;;;;10.00;7.10;;;;;;;8.68;88.44;94792.78;5015421;28;20441;-74
2023/02/24 03:21:13;;;;;;;11.80;7.23;;;;;;;8.75;87.90;94790.50;5033941;28;20503;-73
2023/02/24 03:23:45;;;;;;;12.23;7.97;;;;;;;8.82;87.32;94796.06;5033637;28;20473;-73
2023/02/24 03:26:20;;;;;;;9.50;6.50;;;;;;;8.72;86.83;94787.31;5033976;28;20992;-73
2023/02/24 03:28:58;;;;;;;9.80;7.00;;;;;;;8.73;86.65;94802.03;5033728;28;21007;-74
2023/02/24 03:31:28;;;;;;;11.20;8.50;;;;;;;8.65;86.87;94800.84;5033646;28;20492;-74
2023/02/24 03:34:02;;;;;;;10.80;6.47;;;;;;;8.42;87.24;94799.22;5033628;28;20534;-74
2023/02/24 03:36:30;;;;;;;11.20;6.70;;;;;;;8.39;87.76;94807.31;5033415;28;20534;-74
2023/02/24 03:39:00;;;;;;;8.20;5.90;;;;;;;8.47;87.69;94801.47;5031490;28;20438;-74
2023/02/24 03:41:31;;;;;;;11.87;8.43;;;;;;;8.48;87.56;94793.50;5033529;28;20475;-74
2023/02/24 03:44:00;;;;;;;7.03;4.87;;;;;;;8.42;87.95;94801.84;4999642;28;20530;-75
2023/02/24 03:46:28;;;;;;;8.67;5.50;;;;;;;8.53;86.97;94803.59;5033611;28;20927;-74
2023/02/24 03:49:05;;;;;;;11.40;6.07;;;;;;;8.29;87.82;94794.06;5032855;28;20470;-76
2023/02/24 03:51:35;;;;;;;5.80;5.20;;;;;;;8.02;89.05;94786.56;5033634;28;20494;-75
2023/02/24 03:54:12;;;;;;;8.20;6.03;;;;;;;8.03;89.23;94784.78;5033653;28;20539;-74
2023/02/24 03:56:48;;;;;;;8.30;5.73;;;;;;;8.10;88.67;94791.22;5033391;28;20456;-74
2023/02/24 03:59:29;;;;;;;8.30;5.97;;;;;;;8.27;88.04;94798.56;4998361;28;20867;-72
2023/02/24 04:02:01;;;;;;;9.00;6.17;;;;;;;8.41;87.82;94792.31;5033557;28;20449;-73
2023/02/24 04:04:35;;;;;;;10.73;5.50;;;;;;;8.55;86.85;94789.44;5033561;28;20942;-72
2023/02/24 04:07:08;;;;;;;6.97;5.47;;;;;;;8.67;86.70;94796.34;5033372;28;20443;-72
2023/02/24 04:09:41;;;;;;;7.50;4.87;;;;;;;8.78;85.57;94786.81;5033142;28;20539;-73
2023/02/24 04:12:15;;;;;;;7.47;4.90;;;;;;;8.78;84.53;94792.03;5032875;28;20491;-73
2023/02/24 04:14:49;;;;;;;8.80;5.57;;;;;;;8.73;84.85;94786.34;5033402;28;20455;-74
2023/02/24 04:17:20;;;;;;;4.80;4.13;;;;;;;8.71;85.37;94796.09;5033209;28;20454;-72
2023/02/24 04:19:50;;;;;;;5.33;4.83;;;;;;;8.47;85.36;94789.22;5033048;28;20818;-74
2023/02/24 04:22:23;;;;;;;4.70;4.10;;;;;;;8.60;85.38;94783.84;5032932;28;20445;-73
2023/02/24 04:24:54;;;;;;;10.07;5.80;;;;;;;8.69;84.65;94788.38;5033283;28;20550;-72
2023/02/24 04:27:23;;;;;;;7.87;4.33;;;;;;;8.67;84.30;94785.03;5032965;28;20456;-73
2023/02/24 04:29:53;;;;;;;8.57;4.60;;;;;;;8.58;84.87;94791.81;5032963;28;20452;-73
2023/02/24 04:32:25;;;;;;;8.27;6.60;;;;;;;8.66;84.61;94783.34;5032866;28;20753;-73
2023/02/24 04:34:51;;;;;;;8.40;5.20;;;;;;;8.61;84.60;94782.91;5032599;28;20530;-73
2023/02/24 04:37:21;;;;;;;9.17;5.13;;;;;;;8.68;84.68;94784.09;5032655;28;20460;-73
2023/02/24 04:39:51;;;;;;;6.87;5.43;;;;;;;8.71;84.34;94778.63;5032848;28;20451;-73
2023/02/24 04:42:21;;;;;;;10.07;6.33;;;;;;;8.67;84.30;94782.41;5032531;28;20448;-73
2023/02/24 04:44:47;;;;;;;6.50;4.60;;;;;;;8.58;83.67;94773.50;5032660;28;20787;-74
2023/02/24 04:47:14;;;;;;;7.50;5.57;;;;;;;8.49;84.43;94776.03;5032475;28;21004;-73
2023/02/24 04:49:41;;;;;;;7.83;5.20;;;;;;;8.37;85.40;94777.81;5030644;28;20501;-74
2023/02/24 04:52:09;;;;;;;8.30;6.37;;;;;;;8.42;84.96;94772.25;5032947;28;20486;-74
2023/02/24 04:54:37;;;;;;;10.80;6.20;;;;;;;8.49;84.85;94765.56;5032751;28;20452;-74
2023/02/24 04:57:05;;;;;;;10.70;5.63;;;;;;;8.56;84.95;94764.13;5032635;28;20531;-73
2023/02/24 04:59:32;;;;;;;9.57;5.97;;;;;;;8.55;84.19;94762.47;5031975;28;20870;-74
2023/02/24 05:02:00;;;;;;;8.00;5.03;;;;;;;8.49;84.34;94752.50;5032258;28;20455;-73
2023/02/24 05:04:28;;;;;;;8.00;5.20;;;;;;;8.56;84.34;94762.34;5032928;28;20443;-73
2023/02/24 05:06:56;;;;;;;7.07;5.70;;;;;;;8.60;83.50;94758.53;5032614;28;20452;-74
2023/02/24 05:09:23;;;;;;;8.83;6.27;;;;;;;8.64;83.27;94748.66;5032668;28;20443;-73
2023/02/24 05:11:52;;;;;;;8.10;5.60;;;;;;;8.56;83.93;94753.66;4998956;28;20502;-73
2023/02/24 05:14:21;;;;;;;7.20;4.40;;;;;;;8.63;83.06;94762.69;5051812;28;20458;-73
2023/02/24 05:16:49;;;;;;;6.60;5.80;;;;;;;8.63;83.00;94755.66;5052047;28;20526;-72
2023/02/24 05:22:02;;;;;;;7.40;4.40;;;;;;;8.78;82.99;94760.66;5051809;28;20457;-72
2023/02/24 05:24:31;;;;;;;7.17;5.70;;;;;;;8.89;82.75;94768.47;5051757;28;20480;-73
2023/02/24 05:26:59;;;;;;;22.87;11.83;;;;;;;8.95;82.32;94763.56;5051375;28;20444;-72
2023/02/24 05:29:27;;;;;;;24.77;12.60;;;;;;;9.02;81.34;94774.38;5050279;28;20499;-73
2023/02/24 05:31:58;;;;;;;11.33;7.87;;;;;;;9.09;81.44;94780.78;5049844;28;20490;-73
2023/02/24 05:34:25;;;;;;;9.63;6.83;;;;;;;9.15;80.88;94775.03;5051472;28;20479;-73
2023/02/24 05:36:52;;;;;;;8.87;6.73;;;;;;;9.16;80.58;94771.47;5051458;28;20506;-73
2023/02/24 05:39:20;;;;;;;8.27;5.90;;;;;;;9.04;80.88;94775.09;5032570;28;20432;-73
2023/02/24 05:41:48;;;;;;;10.47;6.43;;;;;;;8.90;80.87;94773.56;5051668;28;20444;-73
2023/02/24 05:44:21;;;;;;;12.03;6.03;;;;;;;8.80;81.58;94779.66;5051354;28;20800;-73
2023/02/24 05:46:51;;;;;;;10.33;6.33;;;;;;;8.74;82.38;94778.38;5051434;28;20486;-73
2023/02/24 05:49:22;;;;;;;21.87;10.83;;;;;;;8.53;83.01;94787.91;5051865;28;20530;-72
2023/02/24 05:51:54;;;;;;;8.80;6.20;;;;;;;8.42;84.42;94780.91;5050983;28;20479;-72
2023/02/24 05:54:23;;;;;;;9.60;7.07;;;;;;;8.35;84.88;94790.16;5051388;28;20451;-72
2023/02/24 05:56:49;;;;;;;17.47;12.93;;;;;;;8.22;85.94;94787.66;5051398;28;20465;-72
2023/02/24 05:59:20;;;;;;;14.50;10.00;;;;;;;8.14;86.49;94781.34;5050792;28;20534;-74
2023/02/24 06:01:48;;;;;;;15.77;7.93;;;;;;;8.18;87.63;94790.63;5051374;28;20508;-70
2023/02/24 06:04:26;;;;;;;14.77;6.30;;;;;;;8.30;87.03;94790.50;5051132;28;20434;-72
2023/02/24 06:06:53;;;;;;;12.37;7.87;;;;;;;8.42;87.16;94780.91;5051170;28;20500;-72
2023/02/24 06:09:22;;;;;;;12.03;7.93;;;;;;;8.59;85.84;94787.41;5051314;28;20441;-72
2023/02/24 06:11:49;;;;;;;10.40;7.23;;;;;;;8.72;84.75;94784.69;5053168;28;20858;-72
2023/02/24 06:14:17;;;;;;;13.30;7.70;;;;;;;8.82;84.50;94788.22;5054819;28;20447;-73
2023/02/24 06:16:44;;;;;;;13.60;7.20;;;;;;;8.75;83.73;94792.28;5054674;28;20946;-73
2023/02/24 06:19:12;;;;;;;12.97;7.03;;;;;;;8.85;83.87;94793.22;5054539;28;20452;-73
2023/02/24 06:21:41;;;;;;;14.33;6.87;;;;;;;8.88;83.11;94798.19;5054575;28;20638;-75
2023/02/24 06:24:13;;;;;;;7.90;4.93;;;;;;;8.88;84.56;94801.66;5054693;28;20535;-74
2023/02/24 06:26:42;;;;;;;9.10;6.30;;;;;;;8.80;83.31;94800.59;5054768;28;20502;-75
2023/02/24 06:29:13;;;;;;;11.13;6.80;;;;;;;8.41;85.12;94804.56;5052322;28;20467;-73
2023/02/24 06:31:42;;;;;;;12.60;6.80;;;;;;;8.35;85.52;94796.22;5053032;28;20493;-73
2023/02/24 06:34:09;;;;;;;11.67;6.53;;;;;;;8.33;85.77;94803.34;5040715;28;20472;-74
2023/02/24 06:36:36;;;;;;;10.67;7.30;;;;;;;8.48;84.79;94795.28;5053853;28;20436;-73
2023/02/24 06:39:06;;;;;;;11.03;6.43;;;;;;;8.56;84.49;94792.91;5040742;28;20478;-73
2023/02/24 06:41:34;;;;;;;12.23;6.87;;;;;;;8.48;84.89;94790.88;5053532;28;20458;-73
2023/02/24 06:44:00;;;;;;;8.13;5.80;;;;;;;8.48;84.67;94785.66;5040741;28;20493;-74
2023/02/24 06:46:27;;;;;;;8.20;6.30;;;;;;;8.52;84.70;94786.25;5025316;28;20494;-73
2023/02/24 06:48:56;;;;;;;11.40;7.60;;;;;;;8.55;85.44;94797.28;5050883;28;20439;-74
2023/02/24 06:51:25;;;;;;;15.80;8.63;;;;;;;8.58;86.10;94793.59;5034081;28;20495;-73
2023/02/24 06:53:54;;;;;;;12.13;9.53;;;;;;;8.66;86.34;94789.44;5034177;28;20453;-74
2023/02/24 06:56:21;;;;;;;19.43;11.27;;;;;;;8.83;86.38;94782.03;5052568;28;20474;-73
2023/02/24 06:58:51;;;;;;;11.27;8.30;;;;;;;8.90;85.64;94788.44;5054236;28;20463;-74
2023/02/24 07:01:20;;;;;;;17.73;8.83;;;;;;;8.95;85.39;94786.28;5054556;28;20456;-73
2023/02/24 07:04:02;;;;;;;12.07;7.33;;;;;;;8.95;84.53;94788.91;5054351;28;20458;-74
2023/02/24 07:06:33;;;;;;;19.33;9.07;;;;;;;8.98;84.15;94783.44;5053814;28;20455;-74
2023/02/24 07:09:00;;;;;;;23.20;9.10;;;;;;;9.01;84.20;94785.81;5047183;28;20459;-75
2023/02/24 07:11:28;;;;;;;13.57;8.23;;;;;;;9.12;84.44;94780.53;5047292;28;20484;-74
2023/02/24 07:13:56;;;;;;;18.83;9.70;;;;;;;9.17;83.75;94765.28;5045854;28;20575;-73
2023/02/24 07:16:24;;;;;;;7.90;6.00;;;;;;;9.11;82.76;94768.41;5054483;28;20448;-74
2023/02/24 07:18:55;;;;;;;11.43;6.83;;;;;;;9.19;83.66;94765.16;5053930;28;20448;-73
2023/02/24 07:21:23;;;;;;;9.87;6.77;;;;;;;9.25;83.00;94768.13;5053717;28;20445;-74
2023/02/24 07:23:55;;;;;;;10.93;7.57;;;;;;;9.24;82.56;94752.50;5052905;28;20503;-74
2023/02/24 07:26:23;;;;;;;9.37;5.73;;;;;;;9.24;82.63;94762.97;5053709;28;20448;-74
2023/02/24 07:28:53;;;;;;;13.30;8.50;;;;;;;9.14;82.55;94772.56;5018793;28;20971;-74
2023/02/24 07:31:22;;;;;;;13.13;7.40;;;;;;;9.05;83.31;94760.22;5053182;28;20920;-74
2023/02/24 07:33:54;;;;;;;18.20;9.63;;;;;;;8.93;83.45;94757.63;5053439;28;20540;-74
2023/02/24 07:36:22;;;;;;;18.57;9.00;;;;;;;9.10;83.93;94766.75;5053588;28;20447;-74
2023/02/24 07:38:53;;;;;;;16.87;8.50;;;;;;;9.27;83.58;94760.16;5053347;28;20581;-74
2023/02/24 07:41:22;;;;;;;10.70;6.83;;;;;;;9.42;83.00;94765.91;5053193;28;20993;-74
2023/02/24 07:43:50;;;;;;;13.40;7.50;;;;;;;9.59;82.59;94758.31;5053169;28;20520;-74
2023/02/24 07:46:19;;;;;;;12.57;6.40;;;;;;;9.79;81.11;94761.88;5053143;28;20526;-74
2023/02/24 07:48:46;;;;;;;17.03;8.53;;;;;;;9.89;80.38;94749.69;5053003;28;20514;-74
2023/02/24 07:51:15;;;;;;;12.20;8.17;;;;;;;9.95;79.94;94732.59;5053124;28;21053;-74
2023/02/24 07:53:44;;;;;;;7.90;6.40;;;;;;;10.08;79.35;94754.19;5053163;28;20442;-74
2023/02/24 07:56:16;;;;;;;11.17;7.23;;;;;;;10.13;77.65;94751.19;5018216;28;21015;-74
2023/02/24 07:58:44;;;;;;;11.97;7.10;;;;;;;10.09;78.04;94749.75;5052951;28;20873;-74
2023/02/24 08:01:21;;;;;;;10.70;7.23;;;;;;;10.03;78.41;94745.06;5052869;28;20996;-74
2023/02/24 08:03:49;;;;;;;17.63;7.10;;;;;;;9.88;79.89;94748.03;5052813;28;20478;-73
2023/02/24 08:06:25;;;;;;;10.50;7.60;;;;;;;9.76;80.57;94759.50;5052984;28;20943;-74
2023/02/24 08:08:58;;;;;;;22.53;9.80;;;;;;;9.76;80.89;94741.19;5052933;28;20449;-74
2023/02/24 08:11:34;;;;;;;16.73;8.33;;;;;;;9.68;80.17;94751.47;5052564;28;20482;-75
2023/02/24 08:14:01;;;;;;;16.30;8.57;;;;;;;9.77;82.45;94749.88;5052761;28;20444;-74
2023/02/24 08:16:38;;;;;;;13.97;8.30;;;;;;;9.75;81.52;94752.63;5017662;28;20880;-74
2023/02/24 08:19:05;;;;;;;18.20;9.60;;;;;;;9.88;80.86;94747.19;5052903;28;20452;-74
2023/02/24 08:21:36;;;;;;;16.30;9.40;;;;;;;9.95;79.96;94748.31;5052503;28;20953;-74
2023/02/24 08:24:04;;;;;;;18.53;9.20;;;;;;;9.91;80.21;94731.22;5052537;28;20936;-74
2023/02/24 08:26:40;;;;;;;16.10;9.30;;;;;;;9.87;79.06;94741.13;5052662;28;20444;-74
2023/02/24 08:29:10;;;;;;;16.43;9.37;;;;;;;9.98;78.92;94734.13;5052136;28;20452;-73
2023/02/24 08:31:37;;;;;;;19.57;10.80;;;;;;;9.97;79.01;94724.59;5052251;28;20521;-74
2023/02/24 08:34:04;;;;;;;22.10;13.70;;;;;;;10.04;79.10;94734.44;5051862;28;20480;-74
2023/02/24 08:36:31;;;;;;;15.93;10.37;;;;;;;10.11;78.64;94732.94;5051939;28;20456;-73
2023/02/24 08:38:58;;;;;;;30.07;10.17;;;;;;;10.07;78.60;94723.69;5052107;28;20501;-74
2023/02/24 08:41:43;;;;;;;18.30;10.70;;;;;;;10.05;79.28;94736.09;5052191;28;20487;-74
2023/02/24 08:44:17;;;;;;;14.30;10.20;;;;;;;10.11;80.12;94732.09;5033258;28;20444;-74
2023/02/24 08:46:47;;;;;;;16.67;10.40;;;;;;;10.13;79.56;94720.56;5052073;28;20502;-74
2023/02/24 08:49:15;;;;;;;24.10;11.23;;;;;;;10.22;79.34;94732.06;5052092;28;20969;-74
2023/02/24 08:51:44;;;;;;;12.70;9.23;;;;;;;10.16;78.22;94720.28;5051965;28;20481;-74
2023/02/24 08:54:15;;;;;;;18.40;10.00;;;;;;;9.84;78.14;94723.03;5052039;28;20456;-74
2023/02/24 08:56:43;;;;;;;18.40;9.90;;;;;;;9.86;79.80;94726.34;5051971;28;20527;-74
2023/02/24 08:59:27;;;;;;;16.63;9.10;;;;;;;10.02;81.70;94731.13;5051900;28;20502;-74
2023/02/24 09:02:17;;;;;;;16.97;9.97;;;;;;;10.06;79.67;94732.50;5051794;28;20448;-74
2023/02/24 09:04:44;;;;;;;16.07;9.60;;;;;;;10.23;79.14;94733.72;5051497;28;20444;-74
2023/02/24 09:07:16;;;;;;;15.73;8.63;;;;;;;10.37;78.13;94733.34;5051963;28;20452;-74
2023/02/24 09:09:44;;;;;;;14.97;8.53;;;;;;;10.48;77.31;94728.03;5051796;28;20819;-74
2023/02/24 09:12:20;;;;;;;11.80;8.47;;;;;;;10.60;76.44;94726.13;5051893;28;20482;-74
2023/02/24 09:14:49;;;;;;;14.10;8.47;;;;;;;10.79;76.32;94727.97;5052132;28;20827;-74
2023/02/24 09:17:19;;;;;;;13.90;8.70;;;;;;;10.98;76.44;94725.34;5051996;28;20528;-73
2023/02/24 09:22:31;;;;;;;13.97;8.70;;;;;;;11.39;74.58;94721.66;4990068;28;20487;-74
2023/02/24 09:25:20;;;;;;;16.00;10.03;;;;;;;11.64;73.63;94719.41;4990449;28;20455;-73
2023/02/24 09:27:51;;;;;;;9.53;7.43;;;;;;;11.56;73.68;94716.63;4989989;28;20443;-74
2023/02/24 09:30:35;;;;;;;12.10;7.27;;;;;;;11.39;72.91;94718.19;4989961;28;20463;-74
2023/02/24 09:33:21;;;;;;;12.53;7.83;;;;;;;11.45;72.63;94710.56;4989951;28;20499;-74
2023/02/24 09:36:08;;;;;;;15.07;7.30;;;;;;;11.54;72.38;94708.91;4989941;28;20526;-74
2023/02/24 09:41:31;;;;;;;11.00;7.53;;;;;;;11.37;72.58;94704.38;4990057;28;20436;-74
2023/02/24 09:44:06;;;;;;;8.70;6.90;;;;;;;11.27;73.23;94693.03;4989957;28;20955;-74
2023/02/24 09:46:41;;;;;;;13.20;7.63;;;;;;;11.35;72.93;94690.56;4991206;28;21028;-75
2023/02/24 09:49:16;;;;;;;9.87;7.10;;;;;;;11.51;73.88;94687.34;4993672;28;20518;-75
2023/02/24 09:51:43;;;;;;;13.00;6.97;;;;;;;11.58;73.74;94681.41;4993511;28;20456;-74
2023/02/24 09:54:17;;;;;;;12.50;8.33;;;;;;;11.84;73.38;94683.41;4993393;28;20448;-74
2023/02/24 09:57:06;;;;;;;11.63;8.33;;;;;;;12.00;71.51;94691.53;4993349;28;20444;-74
2023/02/24 09:59:49;;;;;;;10.40;7.43;;;;;;;12.08;70.85;94686.38;5018329;28;20449;-74
2023/02/24 10:02:32;;;;;;;11.50;7.80;;;;;;;11.99;71.09;94682.00;5055228;28;20441;-74
2023/02/24 10:05:06;;;;;;;16.97;8.97;;;;;;;12.10;71.80;94681.81;5055151;28;20498;-74
2023/02/24 10:07:38;;;;;;;16.20;8.37;;;;;;;12.02;71.60;94672.03;5055082;28;20994;-75
2023/02/24 10:10:19;;;;;;;13.63;9.00;;;;;;;12.09;71.05;94675.72;5054676;28;20481;-74
2023/02/24 10:12:51;;;;;;;13.93;7.63;;;;;;;12.17;71.03;94668.94;5055054;28;20591;-73
2023/02/24 10:15:43;;;;;;;11.83;8.63;;;;;;;12.25;71.02;94666.41;5055028;28;20531;-74
2023/02/24 10:18:26;;;;;;;15.40;9.17;;;;;;;12.18;70.96;94660.91;5054863;28;20434;-73
2023/02/24 10:21:01;;;;;;;20.13;9.70;;;;;;;12.28;73.48;94660.84;5054684;28;20525;-73
2023/02/24 10:23:35;;;;;;;14.07;9.13;;;;;;;12.32;72.01;94655.13;5054533;28;20960;-75
2023/02/24 10:26:05;;;;;;;13.43;8.90;;;;;;;12.12;70.86;94653.56;5054731;28;20495;-74
2023/02/24 10:28:42;;;;;;;13.17;8.80;;;;;;;12.13;70.94;94655.22;5054768;28;20433;-73
2023/02/24 10:31:23;;;;;;;12.80;8.97;;;;;;;11.98;71.15;94640.91;5035691;28;20491;-74
2023/02/24 10:33:57;;;;;;;18.00;9.13;;;;;;;11.90;71.75;94638.19;5037377;28;20497;-74
2023/02/24 10:36:33;;;;;;;15.77;9.10;;;;;;;11.79;71.54;94645.25;5054538;28;20852;-74
2023/02/24 10:39:07;;;;;;;15.13;8.90;;;;;;;11.76;72.97;94626.28;5054308;28;20451;-73
2023/02/24 10:41:44;;;;;;;17.40;9.30;;;;;;;11.68;73.61;94631.44;5054560;28;20453;-73
2023/02/24 10:44:15;;;;;;;13.10;8.50;;;;;;;11.67;72.90;94616.63;5054443;28;20480;-74
2023/02/24 10:46:42;;;;;;;19.23;10.77;;;;;;;11.66;73.71;94612.34;5036216;28;20448;-74
2023/02/24 10:49:15;;;;;;;18.23;10.43;;;;;;;11.66;72.74;94607.91;5054337;28;20538;-74
2023/02/24 10:51:44;;;;;;;14.10;9.00;;;;;;;11.71;72.80;94608.31;5054180;28;20453;-74
2023/02/24 10:54:32;;;;;;;17.73;10.60;;;;;;;11.83;72.89;94598.47;5054165;28;20612;-74
2023/02/24 10:57:14;;;;;;;16.43;8.80;;;;;;;11.86;73.11;94594.75;5053530;28;20442;-74
2023/02/24 11:02:55;;;;;;;18.50;10.13;;;;;;;11.99;72.46;94592.59;5031670;28;20422;-74
2023/02/24 11:05:37;;;;;;;14.20;9.23;;;;;;;11.82;72.58;94586.28;5031878;28;20526;-73
2023/02/24 11:08:14;;;;;;;12.80;9.80;;;;;;;11.66;72.22;94580.81;5031645;28;20843;-74
2023/02/24 11:10:57;;;;;;;11.40;8.87;;;;;;;11.75;72.84;94580.75;5031493;28;20450;-73
2023/02/24 11:18:55;;;;;;;11.83;8.97;;;;;;;11.59;73.48;94570.06;5031524;28;20799;-74
2023/02/24 11:21:26;;;;;;;15.67;8.57;;;;;;;11.34;74.40;94561.00;5031452;28;20457;-74
2023/02/24 11:23:57;;;;;;;12.83;9.17;;;;;;;11.49;74.68;94564.81;5031560;28;20449;-74
2023/02/24 11:26:27;;;;;;;15.73;8.27;;;;;;;11.68;73.72;94563.09;5031321;28;20450;-74
2023/02/24 11:29:09;;;;;;;17.90;10.17;;;;;;;11.88;74.51;94551.56;5031173;28;20886;-75
2023/02/24 11:31:51;;;;;;;19.73;11.83;;;;;;;12.05;73.50;94549.91;5031126;28;20446;-75
2023/02/24 11:34:27;;;;;;;19.73;12.30;;;;;;;12.27;73.85;94552.16;5030659;28;21028;-75
2023/02/24 11:37:07;;;;;;;18.20;10.70;;;;;;;12.24;72.47;94544.56;5030986;28;20454;-75
2023/02/24 11:39:47;;;;;;;23.93;9.20;;;;;;;12.11;73.30;94530.91;5040068;28;20456;-75
2023/02/24 11:42:20;;;;;;;13.27;9.63;;;;;;;12.20;73.74;94532.69;5053597;28;20443;-75
2023/02/24 11:44:54;;;;;;;14.70;10.83;;;;;;;12.30;73.48;94528.16;5053168;28;20823;-75
2023/02/24 11:47:28;;;;;;;14.87;9.80;;;;;;;12.17;73.39;94517.19;5053233;28;20498;-74
2023/02/24 11:50:04;;;;;;;15.67;10.07;;;;;;;12.20;72.95;94508.19;5019271;28;20502;-74
2023/02/24 11:52:38;;;;;;;13.80;9.90;;;;;;;11.99;74.26;94511.06;5053073;28;20539;-74
2023/02/24 11:55:16;;;;;;;21.43;10.83;;;;;;;12.16;74.39;94504.19;5052838;28;20484;-74
2023/02/24 11:57:50;;;;;;;14.23;9.53;;;;;;;12.18;74.25;94496.97;5053114;28;20815;-74
2023/02/24 12:00:20;;;;;;;17.33;11.50;;;;;;;12.32;73.54;94492.00;5053242;28;20469;-74
2023/02/24 12:02:53;;;;;;;14.27;9.30;;;;;;;12.18;73.55;94494.34;5052692;28;20506;-72
2023/02/24 12:05:24;;;;;;;15.73;9.57;;;;;;;12.22;73.12;94479.91;5052985;28;20476;-75
2023/02/24 12:07:56;;;;;;;15.80;10.03;;;;;;;12.39;73.46;94460.66;5052963;28;20439;-75
2023/02/24 12:10:25;;;;;;;20.30;10.93;;;;;;;12.56;73.09;94466.88;5052368;28;20449;-74
2023/02/24 12:13:01;;;;;;;20.87;10.97;;;;;;;12.61;72.50;94464.63;5052707;28;20542;-74